Terminal Aerodrome Forecast
Issued by NWS Dodge City, KS

Home | Current Version | Previous Version | Text Only | Print | Product List | Glossary On
Versions: 1 2 3 4 5 6 7 8 9 10 11 12 13 14 15 16 17 18 19 20 21 22 23 24 25 26 27 28 29
000
FTUS43 KDDC 311720
TAFDDC
TAF
KDDC 311720Z 3118/0118 19024G32KT P6SM FEW100
     FM312300 17017G24KT P6SM SCT080
      TEMPO 3123/0103 VRB30G45KT 3SM TSRA BKN060CB
     FM010600 VRB06KT P6SM SCT250=

USA.gov is the U.S. government's official web portal to all federal, state and local government web resources and services.